KSME/SME METAR and TAF weather

Enter ICAO airport designator
Station Type Date Time Source
KSME METAR 2020/09/21 09:35 UTC NOAA

KSME 210935Z AUTO 00000KT 10SM CLR 10/04 A3039 RMK AO2


Station Type Date Time Source
KSME Decoded METAR 2020/09/21 09:35 UTC NOAA

Somerset, Somerset-Pulaski County - J.T. Wilson Field Airport, KY, United States (KSME) 37-03-15N 084-36-54W
Sep 21, 2020 - 05:35 AM EDT / 2020.09.21 0935 UTC
Wind: Calm:0
Visibility: 10 mile(s):0
Sky conditions: clear
Temperature: 50 F (10 C)
Dew Point: 39 F (4 C)
Relative Humidity: 66%
Pressure (altimeter): 30.39 in. Hg (1029 hPa)
ob: KSME 210935Z AUTO 00000KT 10SM CLR 10/04 A3039 RMK AO2
cycle: 9

Station Type Date Time Source
KSME TAF 2020/09/21 06:30 UTC NOAA

TAF KSME 210528Z 2106/2206 VRB03KT P6SM SKC

Example: see airport list